createdAt,value
2019-05-05T00:02:00.744Z,102.37
2019-05-05T00:04:39.678Z,72.93
2019-05-05T00:07:08.328Z,58.03
2019-05-05T00:09:36.913Z,59.13
2019-05-05T00:12:07.111Z,57.57
2019-05-05T00:14:37.355Z,63.67
2019-05-05T00:17:19.664Z,60.23
2019-05-05T00:19:48.239Z,57.53
2019-05-05T00:22:16.545Z,51.27
2019-05-05T00:24:44.845Z,49.30
2019-05-05T00:27:15.007Z,48.50
2019-05-05T00:29:45.153Z,46.50
2019-05-05T00:32:15.105Z,45.47
2019-05-05T00:34:44.486Z,45.37
2019-05-05T00:37:14.961Z,45.23
2019-05-05T00:39:45.023Z,41.63
2019-05-05T00:42:15.318Z,42.87
2019-05-05T00:44:44.654Z,38.03
2019-05-05T00:47:31.481Z,40.17
2019-05-05T00:49:59.952Z,40.27
2019-05-05T00:52:28.507Z,33.93
2019-05-05T00:54:56.888Z,38.73
2019-05-05T00:57:25.507Z,38.73
2019-05-05T00:59:54.391Z,36.13
2019-05-05T01:02:27.558Z,32.97
2019-05-05T01:05:04.497Z,33.87
2019-05-05T01:07:34.941Z,34.13
2019-05-05T01:10:04.922Z,34.33
2019-05-05T01:12:34.861Z,30.80
2019-05-05T01:15:04.635Z,28.40
2019-05-05T01:17:34.523Z,27.00
2019-05-05T01:20:06.896Z,29.43
2019-05-05T01:22:34.737Z,27.13
2019-05-05T01:25:05.274Z,30.60
2019-05-05T01:27:34.764Z,23.20
2019-05-05T01:30:05.611Z,26.43
2019-05-05T01:32:38.810Z,26.77
2019-05-05T01:35:07.519Z,23.23
2019-05-05T01:37:37.727Z,24.47
2019-05-05T01:40:14.544Z,22.50
2019-05-05T01:42:44.585Z,23.03
2019-05-05T01:45:14.812Z,19.87
2019-05-05T01:47:42.870Z,18.47
2019-05-05T01:50:18.267Z,20.40
2019-05-05T01:52:41.167Z,18.37
2019-05-05T01:55:09.791Z,21.30
2019-05-05T01:57:38.380Z,18.57
2019-05-05T02:00:09.933Z,18.53
2019-05-05T02:02:38.234Z,20.27
2019-05-05T02:05:06.792Z,18.17
2019-05-05T02:07:35.372Z,15.27
2019-05-05T02:10:07.861Z,16.60
2019-05-05T02:12:36.238Z,19.30
2019-05-05T02:15:07.474Z,16.73
2019-05-05T02:17:35.784Z,15.13
2019-05-05T02:20:06.587Z,13.67
2019-05-05T02:22:35.647Z,17.37
2019-05-05T02:25:06.108Z,15.37
2019-05-05T02:27:34.446Z,16.53
2019-05-05T02:30:16.891Z,13.07
2019-05-05T02:32:46.891Z,14.90
2019-05-05T02:35:16.584Z,14.77
2019-05-05T02:37:46.018Z,13.73
2019-05-05T02:40:15.990Z,14.10
2019-05-05T02:42:45.592Z,12.73
2019-05-05T02:45:25.119Z,14.23
2019-05-05T02:47:55.203Z,13.17
2019-05-05T02:50:25.116Z,11.63
2019-05-05T02:52:53.670Z,12.03
2019-05-05T02:55:23.491Z,11.43
2019-05-05T02:57:53.914Z,12.27
2019-05-05T03:00:27.030Z,10.60
2019-05-05T03:02:56.971Z,11.20
2019-05-05T03:05:25.318Z,8.87
2019-05-05T03:07:54.324Z,11.80
2019-05-05T03:10:24.542Z,13.03
2019-05-05T03:12:54.413Z,9.80
2019-05-05T03:15:44.209Z,10.23
2019-05-05T03:18:13.445Z,10.10
2019-05-05T03:20:43.557Z,10.93
2019-05-05T03:23:13.622Z,11.70
2019-05-05T03:25:43.976Z,10.63
2019-05-05T03:28:13.618Z,10.57
2019-05-05T03:30:45.387Z,10.60
2019-05-05T03:33:15.902Z,10.77
2019-05-05T03:35:44.030Z,11.47
2019-05-05T03:38:14.232Z,13.27
2019-05-05T03:40:44.256Z,12.40
2019-05-05T03:43:14.642Z,10.53
2019-05-05T03:45:44.661Z,9.90
2019-05-05T03:48:13.720Z,10.77
2019-05-05T03:50:42.007Z,11.03
2019-05-05T03:53:10.608Z,15.27
2019-05-05T03:55:39.138Z,15.43
2019-05-05T03:58:07.775Z,15.40
2019-05-05T04:00:45.334Z,16.77
2019-05-05T04:03:14.704Z,13.83
2019-05-05T04:05:47.787Z,14.70
2019-05-05T04:08:16.431Z,15.10
2019-05-05T04:10:44.784Z,13.87
2019-05-05T04:13:13.907Z,11.90
2019-05-05T04:15:44.212Z,13.17
2019-05-05T04:18:20.311Z,14.83
2019-05-05T04:20:48.887Z,13.20
2019-05-05T04:23:17.167Z,13.27
2019-05-05T04:25:45.752Z,11.43
2019-05-05T04:28:14.054Z,12.67
2019-05-05T04:30:44.439Z,11.73
2019-05-05T04:33:14.295Z,12.40
2019-05-05T04:35:44.429Z,11.47
2019-05-05T04:38:13.925Z,9.17
2019-05-05T04:40:43.552Z,10.43
2019-05-05T04:43:14.132Z,9.10
2019-05-05T04:45:43.592Z,11.03
2019-05-05T04:48:14.071Z,9.33
2019-05-05T04:50:44.156Z,11.70
2019-05-05T04:53:14.291Z,11.57
2019-05-05T04:55:44.259Z,9.03
2019-05-05T04:58:13.691Z,8.77
2019-05-05T05:00:44.157Z,9.27
2019-05-05T05:03:30.805Z,10.20
2019-05-05T05:06:04.145Z,8.07
2019-05-05T05:08:33.779Z,7.07
2019-05-05T05:11:03.643Z,8.13
2019-05-05T05:13:34.587Z,7.43
2019-05-05T05:16:04.542Z,7.53
2019-05-05T05:18:34.405Z,7.40
2019-05-05T05:21:03.981Z,7.53
2019-05-05T05:23:34.134Z,6.90
2019-05-05T05:26:04.848Z,6.77
2019-05-05T05:28:34.192Z,7.23
2019-05-05T05:31:03.921Z,6.77
2019-05-05T05:33:34.427Z,6.90
2019-05-05T05:36:04.008Z,7.73
2019-05-05T05:38:34.624Z,6.60
2019-05-05T05:41:13.769Z,6.90
2019-05-05T05:43:49.760Z,6.80
2019-05-05T05:46:24.071Z,7.37
2019-05-05T05:49:10.499Z,8.37
2019-05-05T05:51:39.090Z,5.63
2019-05-05T05:54:07.675Z,5.90
2019-05-05T05:56:36.247Z,6.53
2019-05-05T05:59:04.835Z,7.43
2019-05-05T06:01:34.555Z,6.50
2019-05-05T06:04:04.082Z,6.03
2019-05-05T06:06:34.702Z,6.80
2019-05-05T06:09:04.312Z,7.03
2019-05-05T06:11:34.443Z,6.63
2019-05-05T06:14:04.032Z,7.20
2019-05-05T06:16:34.149Z,8.30
2019-05-05T06:19:03.629Z,6.93
2019-05-05T06:21:33.762Z,6.63
2019-05-05T06:24:04.291Z,7.90
2019-05-05T06:26:34.371Z,6.67
2019-05-05T06:29:04.362Z,5.27
2019-05-05T06:31:34.171Z,6.03
2019-05-05T06:34:03.693Z,7.03
2019-05-05T06:36:34.049Z,6.30
2019-05-05T06:39:04.557Z,4.67
2019-05-05T06:41:53.911Z,7.20
2019-05-05T06:44:29.982Z,4.23
2019-05-05T06:47:08.691Z,5.17
2019-05-05T06:49:37.331Z,5.30
2019-05-05T06:52:05.923Z,5.53
2019-05-05T06:54:34.842Z,6.43
2019-05-05T06:57:04.519Z,5.23
2019-05-05T06:59:34.942Z,7.13
2019-05-05T07:02:04.272Z,4.77
2019-05-05T07:04:33.982Z,6.07
2019-05-05T07:07:04.915Z,4.50
2019-05-05T07:09:34.928Z,6.07
2019-05-05T07:12:04.507Z,4.90
2019-05-05T07:14:33.994Z,5.37
2019-05-05T07:17:05.559Z,7.80
2019-05-05T07:19:34.469Z,19.47
2019-05-05T07:22:04.066Z,41.17
2019-05-05T07:24:34.400Z,27.57
2019-05-05T07:27:04.727Z,26.37
2019-05-05T07:29:34.279Z,32.67
2019-05-05T07:32:04.005Z,29.27
2019-05-05T07:34:54.495Z,32.00
2019-05-05T07:37:23.856Z,30.50
2019-05-05T07:39:54.070Z,39.07
2019-05-05T07:42:24.341Z,59.70
2019-05-05T07:44:54.738Z,60.00
2019-05-05T07:47:23.877Z,53.57
2019-05-05T07:49:53.567Z,57.30
2019-05-05T07:52:23.760Z,58.00
2019-05-05T07:54:52.336Z,59.07
2019-05-05T07:57:20.621Z,84.83
2019-05-05T07:59:48.910Z,94.83
2019-05-05T08:02:17.315Z,109.73
2019-05-05T08:04:45.946Z,114.90
2019-05-05T08:07:14.772Z,119.40
2019-05-05T08:09:44.473Z,122.03
2019-05-05T08:12:13.723Z,109.17
2019-05-05T08:14:44.239Z,108.63
2019-05-05T08:17:31.100Z,109.23
2019-05-05T08:20:14.276Z,144.10
2019-05-05T08:22:44.339Z,126.70
2019-05-05T08:25:37.445Z,126.83
2019-05-05T08:28:06.154Z,118.30
2019-05-05T08:30:39.027Z,117.30
2019-05-05T08:33:07.341Z,115.33
2019-05-05T08:35:35.653Z,111.93
2019-05-05T08:38:04.615Z,108.63
2019-05-05T08:40:34.567Z,109.07
2019-05-05T08:43:04.635Z,100.10
2019-05-05T08:45:34.936Z,98.07
2019-05-05T08:48:04.860Z,102.73
2019-05-05T08:50:34.837Z,97.97
2019-05-05T08:53:04.447Z,97.43
2019-05-05T08:55:34.067Z,103.07
2019-05-05T08:58:04.364Z,106.97
2019-05-05T09:00:33.792Z,110.93
2019-05-05T09:03:03.777Z,103.00
2019-05-05T09:05:34.374Z,108.40
2019-05-05T09:08:04.570Z,92.67
2019-05-05T09:10:34.289Z,100.13
2019-05-05T09:13:03.887Z,84.77
2019-05-05T09:15:33.652Z,84.23
2019-05-05T09:18:04.992Z,80.90
2019-05-05T09:20:34.785Z,80.63
2019-05-05T09:23:04.189Z,85.00
2019-05-05T09:25:40.302Z,74.97
2019-05-05T09:28:14.746Z,76.13
2019-05-05T09:30:45.545Z,68.43
2019-05-05T09:33:14.299Z,61.57
2019-05-05T09:35:43.888Z,63.73
2019-05-05T09:38:14.503Z,58.00
2019-05-05T09:40:43.994Z,55.77
2019-05-05T09:43:14.542Z,53.60
2019-05-05T09:45:44.216Z,53.33
2019-05-05T09:48:13.954Z,52.27
2019-05-05T09:50:43.671Z,48.20
2019-05-05T09:53:14.612Z,56.23
2019-05-05T09:55:44.304Z,50.43
2019-05-05T09:58:13.700Z,48.97
2019-05-05T10:00:44.178Z,46.23
2019-05-05T10:03:14.456Z,49.97
2019-05-05T10:05:43.529Z,40.83
2019-05-05T10:08:14.269Z,43.40
2019-05-05T10:10:44.266Z,43.57
2019-05-05T10:13:14.916Z,41.40
2019-05-05T10:15:44.346Z,39.50
2019-05-05T10:18:14.084Z,42.87
2019-05-05T10:20:43.004Z,52.30
2019-05-05T10:23:11.585Z,57.00
2019-05-05T10:25:41.513Z,65.23
2019-05-05T10:28:09.942Z,60.37
2019-05-05T10:30:38.239Z,55.93
2019-05-05T10:33:07.059Z,53.23
2019-05-05T10:35:36.045Z,52.13
2019-05-05T10:38:05.180Z,48.83
2019-05-05T10:40:34.575Z,52.27
2019-05-05T10:43:04.430Z,47.70
2019-05-05T10:45:33.043Z,57.73
2019-05-05T10:48:01.338Z,60.13
2019-05-05T10:50:29.899Z,55.00
2019-05-05T10:52:58.584Z,52.33
2019-05-05T10:55:29.427Z,53.43
2019-05-05T10:57:58.126Z,52.13
2019-05-05T11:00:44.512Z,54.50
2019-05-05T11:03:14.957Z,53.67
2019-05-05T11:05:44.832Z,57.53
2019-05-05T11:08:13.727Z,79.93
2019-05-05T11:10:44.530Z,84.73
2019-05-05T11:13:12.380Z,82.33
2019-05-05T11:15:41.031Z,80.57
2019-05-05T11:18:09.339Z,73.83
2019-05-05T11:20:37.615Z,74.67
2019-05-05T11:23:06.879Z,73.00
2019-05-05T11:25:35.167Z,68.83
2019-05-05T11:28:05.493Z,76.83
2019-05-05T11:30:42.675Z,74.87
2019-05-05T11:33:15.284Z,82.50
2019-05-05T11:36:01.351Z,92.33
2019-05-05T11:38:30.019Z,99.27
2019-05-05T11:40:58.307Z,98.33
2019-05-05T11:43:26.889Z,101.03
2019-05-05T11:45:55.192Z,89.63
2019-05-05T11:48:24.150Z,89.30
2019-05-05T11:50:54.066Z,92.77
2019-05-05T11:53:24.937Z,106.10
2019-05-05T11:55:54.956Z,114.60
2019-05-05T11:58:24.820Z,108.10
2019-05-05T12:00:54.445Z,108.93
2019-05-05T12:03:24.856Z,106.27
2019-05-05T12:05:53.463Z,100.20
2019-05-05T12:08:23.859Z,93.43
2019-05-05T12:10:59.554Z,94.90
2019-05-05T12:13:27.899Z,96.80
2019-05-05T12:16:00.703Z,102.80
2019-05-05T12:18:29.075Z,95.23
2019-05-05T12:20:57.660Z,95.10
2019-05-05T12:23:25.968Z,79.80
2019-05-05T12:25:58.787Z,81.97
2019-05-05T12:28:28.962Z,73.23
2019-05-05T12:30:58.878Z,68.47
2019-05-05T12:33:27.186Z,60.07
2019-05-05T12:35:55.819Z,64.93
2019-05-05T12:38:24.218Z,68.27
2019-05-05T12:40:53.533Z,58.47
2019-05-05T12:43:22.078Z,64.07
2019-05-05T12:45:58.013Z,63.17
2019-05-05T12:48:28.261Z,68.83
2019-05-05T12:50:56.944Z,66.20
2019-05-05T12:53:25.539Z,71.80
2019-05-05T12:55:56.997Z,61.47
2019-05-05T12:58:25.659Z,68.43
2019-05-05T13:01:14.291Z,63.73
2019-05-05T13:03:43.787Z,62.33
2019-05-05T13:06:14.486Z,63.17
2019-05-05T13:08:44.457Z,67.10
2019-05-05T13:11:13.167Z,90.93
2019-05-05T13:13:43.818Z,103.03
2019-05-05T13:16:13.660Z,93.13
2019-05-05T13:18:42.231Z,86.50
2019-05-05T13:21:21.519Z,88.73
2019-05-05T13:23:54.626Z,73.83
2019-05-05T13:26:29.264Z,82.07
2019-05-05T13:28:58.498Z,121.97
2019-05-05T13:31:29.621Z,121.43
2019-05-05T13:33:58.015Z,108.67
2019-05-05T13:36:29.643Z,94.53
2019-05-05T13:38:58.717Z,97.47
2019-05-05T13:41:27.399Z,101.20
2019-05-05T13:43:57.342Z,87.00
2019-05-05T13:46:27.631Z,92.17
2019-05-05T13:48:57.565Z,82.03
2019-05-05T13:51:26.377Z,83.33
2019-05-05T13:53:54.746Z,80.80
2019-05-05T13:56:24.567Z,68.43
2019-05-05T13:58:53.346Z,68.17
2019-05-05T14:01:23.746Z,73.27
2019-05-05T14:03:54.191Z,82.40
2019-05-05T14:06:24.262Z,82.17
2019-05-05T14:08:54.074Z,78.13
2019-05-05T14:11:24.635Z,71.67
2019-05-05T14:13:52.859Z,67.27
2019-05-05T14:16:21.229Z,65.77
2019-05-05T14:18:50.186Z,64.47
2019-05-05T14:21:18.768Z,63.87
2019-05-05T14:24:01.219Z,67.77
2019-05-05T14:26:32.114Z,70.83
2019-05-05T14:28:59.886Z,80.30
2019-05-05T14:31:33.816Z,78.43
2019-05-05T14:34:04.539Z,76.50
2019-05-05T14:36:40.354Z,68.53
2019-05-05T14:39:10.695Z,67.13
2019-05-05T14:41:38.987Z,71.90
2019-05-05T14:44:07.394Z,64.13
2019-05-05T14:46:36.046Z,62.53
2019-05-05T14:49:05.685Z,61.50
2019-05-05T14:51:39.741Z,56.53
2019-05-05T14:54:10.795Z,55.87
2019-05-05T14:56:39.508Z,55.13
2019-05-05T14:59:08.407Z,63.63
2019-05-05T15:01:37.092Z,61.07
2019-05-05T15:04:05.674Z,55.53
2019-05-05T15:06:35.988Z,61.70
2019-05-05T15:09:07.628Z,54.47
2019-05-05T15:11:40.615Z,53.80
2019-05-05T15:14:08.907Z,50.50
2019-05-05T15:16:37.918Z,48.67
2019-05-05T15:19:06.292Z,45.03
2019-05-05T15:21:36.548Z,44.47
2019-05-05T15:24:08.387Z,47.77
2019-05-05T15:26:49.144Z,45.60
2019-05-05T15:29:11.054Z,48.43
2019-05-05T15:31:43.412Z,48.27
2019-05-05T15:34:15.846Z,46.67
2019-05-05T15:36:44.292Z,47.43
2019-05-05T15:39:13.891Z,43.27
2019-05-05T15:41:44.504Z,42.20
2019-05-05T15:44:13.503Z,46.17
2019-05-05T15:46:44.067Z,39.83
2019-05-05T15:49:13.340Z,41.53
2019-05-05T15:51:41.787Z,37.10
2019-05-05T15:54:10.238Z,41.07
2019-05-05T15:56:38.556Z,35.37
2019-05-05T15:59:06.907Z,32.10
2019-05-05T16:01:35.192Z,32.87
2019-05-05T16:04:04.416Z,35.00
2019-05-05T16:06:34.486Z,36.80
2019-05-05T16:09:04.206Z,38.83
2019-05-05T16:11:33.952Z,46.80
2019-05-05T16:14:03.899Z,40.97
2019-05-05T16:16:34.329Z,41.93
2019-05-05T16:19:14.029Z,40.27
2019-05-05T16:21:54.375Z,38.27
2019-05-05T16:24:24.746Z,65.27
2019-05-05T16:26:55.372Z,127.90
2019-05-05T16:29:23.826Z,107.67
2019-05-05T16:31:53.653Z,52.77
2019-05-05T16:34:23.561Z,51.23
2019-05-05T16:36:54.436Z,54.30
2019-05-05T16:39:22.584Z,59.67
2019-05-05T16:41:51.383Z,58.17
2019-05-05T16:44:19.686Z,56.50
2019-05-05T16:46:48.004Z,57.30
2019-05-05T16:49:16.385Z,57.10
2019-05-05T16:51:46.735Z,54.13
2019-05-05T16:54:16.686Z,57.37
2019-05-05T16:56:45.231Z,54.40
2019-05-05T16:59:14.264Z,51.50
2019-05-05T17:01:44.550Z,52.60
2019-05-05T17:04:14.249Z,53.20
2019-05-05T17:06:45.483Z,46.03
2019-05-05T17:09:14.933Z,49.20
2019-05-05T17:11:44.746Z,48.07
2019-05-05T17:14:18.019Z,44.73
2019-05-05T17:16:48.240Z,47.23
2019-05-05T17:19:27.047Z,42.50
2019-05-05T17:22:09.683Z,46.53
2019-05-05T17:24:38.902Z,39.20
2019-05-05T17:27:07.674Z,40.97
2019-05-05T17:29:36.252Z,57.97
2019-05-05T17:32:04.942Z,43.87
2019-05-05T17:34:34.052Z,51.50
2019-05-05T17:37:04.313Z,60.30
2019-05-05T17:39:34.690Z,58.27
2019-05-05T17:42:04.908Z,58.03
2019-05-05T17:44:41.202Z,62.40
2019-05-05T17:47:20.519Z,69.10
2019-05-05T17:49:57.198Z,63.90
2019-05-05T17:52:27.599Z,63.03
2019-05-05T17:54:56.881Z,60.80
2019-05-05T17:57:25.499Z,59.03
2019-05-05T17:59:56.248Z,58.90
2019-05-05T18:02:24.547Z,57.83
2019-05-05T18:04:54.116Z,62.73
2019-05-05T18:07:27.150Z,54.70
2019-05-05T18:10:04.120Z,51.90
2019-05-05T18:12:36.946Z,50.70
2019-05-05T18:15:06.902Z,52.00
2019-05-05T18:17:35.294Z,49.40
2019-05-05T18:20:05.161Z,45.07
2019-05-05T18:22:34.292Z,50.70
2019-05-05T18:25:05.995Z,58.27
2019-05-05T18:27:35.088Z,53.30
2019-05-05T18:30:04.884Z,47.23
2019-05-05T18:32:34.192Z,50.20
2019-05-05T18:35:06.763Z,45.00
2019-05-05T18:37:35.601Z,46.07
2019-05-05T18:40:06.456Z,42.80
2019-05-05T18:42:36.301Z,45.57
2019-05-05T18:45:08.840Z,42.70
2019-05-05T18:47:37.397Z,43.90
2019-05-05T18:50:07.008Z,62.93
2019-05-05T18:52:35.595Z,83.47
2019-05-05T18:55:06.171Z,79.10
2019-05-05T18:57:34.813Z,69.43
2019-05-05T19:00:05.207Z,54.03
2019-05-05T19:02:35.712Z,59.30
2019-05-05T19:05:24.947Z,65.40
2019-05-05T19:08:04.626Z,66.90
2019-05-05T19:10:33.729Z,67.40
2019-05-05T19:13:02.140Z,64.47
2019-05-05T19:15:30.783Z,61.23
2019-05-05T19:17:59.531Z,58.70
2019-05-05T19:20:36.014Z,53.60
2019-05-05T19:23:06.902Z,51.83
2019-05-05T19:25:37.194Z,60.37
2019-05-05T19:28:07.911Z,131.60
2019-05-05T19:30:36.336Z,109.40
2019-05-05T19:33:04.947Z,69.97
2019-05-05T19:35:44.089Z,69.47
2019-05-05T19:38:07.446Z,76.57
2019-05-05T19:40:35.770Z,73.67
2019-05-05T19:43:04.898Z,71.27
2019-05-05T19:45:34.413Z,73.00
2019-05-05T19:48:05.626Z,68.93
2019-05-05T19:50:35.283Z,70.77
2019-05-05T19:53:04.681Z,61.83
2019-05-05T19:55:36.259Z,57.97
2019-05-05T19:58:05.126Z,57.40
2019-05-05T20:00:35.173Z,56.77
2019-05-05T20:03:05.076Z,56.73
2019-05-05T20:05:38.048Z,57.87
2019-05-05T20:08:06.626Z,55.93
2019-05-05T20:10:35.663Z,71.80
2019-05-05T20:13:05.629Z,124.93
2019-05-05T20:15:36.797Z,114.70
2019-05-05T20:18:07.110Z,81.57
2019-05-05T20:20:35.398Z,75.17
2019-05-05T20:23:04.258Z,76.13
2019-05-05T20:25:34.061Z,76.57
2019-05-05T20:28:03.884Z,69.20
2019-05-05T20:30:34.272Z,66.13
2019-05-05T20:33:15.971Z,72.63
2019-05-05T20:35:46.243Z,64.97
2019-05-05T20:38:16.189Z,65.67
2019-05-05T20:41:04.230Z,63.00
2019-05-05T20:43:32.645Z,77.63
2019-05-05T20:46:01.367Z,80.33
2019-05-05T20:48:34.573Z,71.40
2019-05-05T20:51:03.235Z,70.97
2019-05-05T20:53:31.563Z,62.13
2019-05-05T20:56:00.067Z,56.27
2019-05-05T20:58:28.430Z,58.43
2019-05-05T21:00:56.754Z,53.93
2019-05-05T21:03:25.439Z,51.97
2019-05-05T21:05:54.024Z,56.60
2019-05-05T21:08:24.446Z,54.23
2019-05-05T21:10:53.970Z,66.53
2019-05-05T21:13:24.703Z,105.43
2019-05-05T21:15:53.914Z,119.17
2019-05-05T21:18:23.911Z,88.93
2019-05-05T21:20:54.657Z,75.33
2019-05-05T21:23:35.410Z,63.03
2019-05-05T21:26:05.831Z,66.40
2019-05-05T21:28:34.123Z,62.70
2019-05-05T21:31:04.639Z,54.57
2019-05-05T21:33:34.715Z,53.80
2019-05-05T21:36:04.202Z,51.87
2019-05-05T21:38:35.414Z,55.93
2019-05-05T21:41:04.211Z,60.03
2019-05-05T21:43:32.910Z,55.90
2019-05-05T21:46:01.469Z,69.33
2019-05-05T21:48:30.055Z,125.43
2019-05-05T21:51:05.991Z,141.77
2019-05-05T21:53:48.204Z,124.00
2019-05-05T21:56:24.839Z,97.97
2019-05-05T21:58:54.188Z,100.70
2019-05-05T22:01:26.969Z,91.07
2019-05-05T22:03:53.839Z,94.07
2019-05-05T22:06:24.135Z,76.57
2019-05-05T22:08:53.669Z,77.37
2019-05-05T22:11:24.312Z,80.40
2019-05-05T22:13:54.053Z,78.77
2019-05-05T22:16:23.274Z,81.47
2019-05-05T22:18:54.020Z,98.80
2019-05-05T22:21:35.724Z,86.67
2019-05-05T22:24:15.910Z,80.53
2019-05-05T22:26:44.659Z,90.97
2019-05-05T22:29:14.137Z,92.10
2019-05-05T22:31:43.231Z,92.47
2019-05-05T22:34:11.829Z,92.50
2019-05-05T22:36:40.392Z,92.90
2019-05-05T22:39:11.380Z,96.87
2019-05-05T22:41:39.666Z,88.47
2019-05-05T22:44:07.971Z,82.00
2019-05-05T22:46:36.279Z,80.07
2019-05-05T22:49:04.721Z,73.00
2019-05-05T22:51:33.779Z,74.57
2019-05-05T22:54:03.956Z,90.87
2019-05-05T22:56:33.741Z,85.73
2019-05-05T22:59:04.329Z,91.47
2019-05-05T23:01:32.810Z,96.10
2019-05-05T23:04:03.722Z,95.03
2019-05-05T23:06:34.066Z,95.10
2019-05-05T23:09:04.094Z,96.17
2019-05-05T23:11:32.534Z,82.00
2019-05-05T23:14:19.071Z,107.20
2019-05-05T23:16:49.018Z,100.27
2019-05-05T23:19:17.419Z,117.67
2019-05-05T23:21:47.346Z,116.97
2019-05-05T23:24:23.789Z,131.43
2019-05-05T23:26:54.592Z,136.17
2019-05-05T23:29:24.199Z,124.13
2019-05-05T23:31:53.829Z,117.70
2019-05-05T23:34:24.250Z,129.27
2019-05-05T23:36:53.578Z,127.73
2019-05-05T23:39:24.147Z,113.27
2019-05-05T23:41:54.495Z,120.10
2019-05-05T23:44:23.793Z,121.77
2019-05-05T23:46:53.766Z,116.90
2019-05-05T23:49:24.168Z,117.80
2019-05-05T23:51:53.996Z,117.43
2019-05-05T23:54:24.684Z,114.93
2019-05-05T23:56:53.859Z,109.90
2019-05-05T23:59:24.129Z,96.97
